Decoded Metar for VOTV (TRIVANDRUM in INDIA) (IATA:TRV) | Meteo·Mobile Aviation Weather
aviador You're here:

VOTV Decoded Metar

TRIVANDRUM in INDIA
Report Time2018-09-25 19:30:00
UTC Time2018-09-25 19:43:41
Flight Rules ifr IFR
Wind320° at 03 kt
W.Decomp.*RWY 32: 3.0 kt HW 0.2 kt RCW
W.Rank320° ranks 3
Current wind is below 320° avg. (5.5)
Visibility4000 m
Phenomena:Haze
Clouds:Scattered 015 Hf
Scattered 080 Hf
Expected CloudBase > 1,200 ft AGL from Temp-Dew spread
CeilingNone
Temp27°C (ISA +12)
Dew Point24°C (84% RH)
Heat Index30.1°C
QNH1009 hPa
Density Alt1,942 ft
Elevation26 ft
Report Wrong Elevation
Raw Report
VOTV 251930Z 32003KT 4000 HZ SCT015 SCT080 27/24 Q1009 NOSIG=

Extra information for VOTV:More info

Metar Taf Metar & Taf Last 4 Metars F.Rules Stats Wind Profile Meteogram Temp Stats Airport Information Weather charts Add Link Nearby VenuesMetar ALERT Operation Metar Decoded Social comments